THY1525 LTFM-LTBH

Flight info

Callsign THY1525
Flight time 0h 33m
Altitude 31000
Route IVGUS Y226 BIG
Aircraft A320/M-SDE3FGHIRWY/LB1

Departure

Time 2026-05-06 18:48
Airport İstanbul Airport (LTFM)

Arrival

Time 2026-05-06 19:22
Airport Çanakkale Airport (LTBH)
Time Latitude Longitude Altitude Speed Heading
2026-05-06 18:26 41.26772 28.73529 337 ft 0 kts 178°
2026-05-06 18:41 41.26788 28.73529 330 ft 4 kts 180°
2026-05-06 18:42 41.26815 28.73530 333 ft 4 kts 185°
2026-05-06 18:42 41.26842 28.73535 330 ft 4 kts 195°
2026-05-06 18:42 41.26865 28.73548 330 ft 4 kts 229°
2026-05-06 18:42 41.26872 28.73566 330 ft 1 kts 269°
2026-05-06 18:43 41.26872 28.73569 330 ft 0 kts 269°
2026-05-06 18:45 41.26872 28.73564 334 ft 1 kts 269°
2026-05-06 18:45 41.26871 28.73485 332 ft 19 kts 270°
2026-05-06 18:45 41.26868 28.73280 332 ft 25 kts 268°
2026-05-06 18:45 41.26866 28.73122 334 ft 25 kts 269°
2026-05-06 18:46 41.26794 28.72991 331 ft 16 kts 179°
2026-05-06 18:46 41.26720 28.72969 334 ft 1 kts 245°
2026-05-06 18:46 41.26717 28.72960 330 ft 0 kts 251°
2026-05-06 18:46 41.26716 28.72891 334 ft 25 kts 270°
2026-05-06 18:47 41.26713 28.72621 330 ft 30 kts 268°
2026-05-06 18:47 41.26731 28.72513 334 ft 6 kts 352°
2026-05-06 18:47 41.26735 28.72513 334 ft 0 kts
2026-05-06 18:47 41.26898 28.72512 334 ft 65 kts 359°
2026-05-06 18:48 41.27616 28.72493 332 ft 135 kts 359°
2026-05-06 18:48 41.28715 28.72465 595 ft 167 kts
2026-05-06 18:48 41.29870 28.72448 1454 ft 167 kts 360°
2026-05-06 18:48 41.31024 28.72437 2303 ft 169 kts 359°
2026-05-06 18:49 41.32202 28.72443 3179 ft 170 kts 359°
2026-05-06 18:49 41.33396 28.72481 3982 ft 176 kts 359°
2026-05-06 18:49 41.34693 28.72499 4437 ft 199 kts 358°
2026-05-06 18:49 41.36169 28.72504 4980 ft 224 kts 356°
2026-05-06 18:50 41.37716 28.71915 5604 ft 246 kts 324°
2026-05-06 18:50 41.38726 28.70039 6556 ft 260 kts 289°
2026-05-06 18:50 41.38927 28.67608 7626 ft 270 kts 272°
2026-05-06 18:50 41.38770 28.65077 8708 ft 277 kts 268°
2026-05-06 18:51 41.38529 28.62514 9761 ft 282 kts 268°
2026-05-06 18:51 41.38178 28.59898 10618 ft 298 kts 256°
2026-05-06 18:51 41.37066 28.57408 11028 ft 332 kts 230°
2026-05-06 18:51 41.35085 28.55614 11518 ft 359 kts 202°
2026-05-06 18:52 41.32584 28.55128 12294 ft 369 kts 178°
2026-05-06 18:52 41.30004 28.55356 13192 ft 373 kts 178°
2026-05-06 18:52 41.27392 28.55457 14080 ft 376 kts 181°
2026-05-06 18:52 41.24784 28.55052 14852 ft 379 kts 194°
2026-05-06 18:53 41.22269 28.53983 15590 ft 381 kts 204°
2026-05-06 18:53 41.19794 28.52659 16368 ft 385 kts 204°
2026-05-06 18:53 41.17304 28.51392 17123 ft 390 kts 203°
2026-05-06 18:53 41.14709 28.50116 17885 ft 394 kts 202°
2026-05-06 18:54 41.12150 28.48877 18593 ft 399 kts 202°
2026-05-06 18:54 41.09526 28.47608 19251 ft 404 kts 202°
2026-05-06 18:54 41.06871 28.46327 19911 ft 409 kts 201°
2026-05-06 18:54 41.04097 28.45351 20557 ft 416 kts 195°
2026-05-06 18:55 41.01268 28.44462 21181 ft 420 kts 195°
2026-05-06 18:55 40.98410 28.43569 21789 ft 425 kts 195°
2026-05-06 18:55 40.95520 28.42644 22380 ft 428 kts 199°
2026-05-06 18:55 40.92749 28.41197 22915 ft 429 kts 212°
2026-05-06 18:56 40.90279 28.39008 23479 ft 427 kts 225°
2026-05-06 18:56 40.88223 28.36187 23892 ft 424 kts 238°
2026-05-06 18:56 40.86669 28.32911 24032 ft 416 kts 250°
2026-05-06 18:56 40.85682 28.29367 24064 ft 408 kts 262°
2026-05-06 18:57 40.85126 28.25714 24069 ft 405 kts 265°
2026-05-06 18:57 40.84591 28.22058 24068 ft 405 kts 264°
2026-05-06 18:57 40.84041 28.18403 24066 ft 406 kts 264°
2026-05-06 18:57 40.83485 28.14750 24065 ft 406 kts 264°
2026-05-06 18:58 40.82936 28.11129 24409 ft 409 kts 264°
2026-05-06 18:58 40.82377 28.07442 25025 ft 410 kts 264°
2026-05-06 18:58 40.81539 28.03805 25564 ft 422 kts 250°
2026-05-06 18:58 40.79899 28.00532 26081 ft 437 kts 233°
2026-05-06 18:59 40.77720 27.97685 26600 ft 443 kts 229°
2026-05-06 18:59 40.75485 27.94874 27102 ft 446 kts 229°
2026-05-06 18:59 40.73220 27.92059 27614 ft 449 kts 229°
2026-05-06 18:59 40.70933 27.89231 27976 ft 451 kts 229°
2026-05-06 19:00 40.68645 27.86401 28054 ft 451 kts 229°
2026-05-06 19:00 40.64078 27.80727 28057 ft 451 kts 229°
2026-05-06 19:01 40.59527 27.75048 28057 ft 451 kts 230°
2026-05-06 19:01 40.54974 27.69365 28060 ft 451 kts 229°
2026-05-06 19:02 40.51179 27.64641 27854 ft 452 kts 229°
2026-05-06 19:02 40.48893 27.61802 27598 ft 451 kts 229°
2026-05-06 19:02 40.46613 27.58979 27331 ft 450 kts 229°
2026-05-06 19:02 40.44336 27.56164 27067 ft 448 kts 229°
2026-05-06 19:03 40.42069 27.53361 26815 ft 447 kts 229°
2026-05-06 19:03 40.39809 27.50571 26551 ft 445 kts 229°
2026-05-06 19:03 40.37557 27.47797 26305 ft 443 kts 229°
2026-05-06 19:03 40.35315 27.45037 26033 ft 442 kts 229°
2026-05-06 19:04 40.33110 27.42234 25797 ft 437 kts 233°
2026-05-06 19:04 40.31270 27.39125 25547 ft 428 kts 243°
2026-05-06 19:04 40.29884 27.35724 25303 ft 419 kts 253°
2026-05-06 19:04 40.28962 27.32140 25069 ft 411 kts 262°
2026-05-06 19:05 40.28496 27.28482 24832 ft 404 kts 271°
2026-05-06 19:05 40.28436 27.24826 24588 ft 400 kts 275°
2026-05-06 19:05 40.28438 27.21196 24358 ft 399 kts 275°
2026-05-06 19:05 40.28427 27.17566 24125 ft 398 kts 275°
2026-05-06 19:06 40.28412 27.13936 23883 ft 398 kts 275°
2026-05-06 19:06 40.28395 27.10311 23650 ft 398 kts 274°
2026-05-06 19:06 40.28377 27.06692 23389 ft 397 kts 274°
2026-05-06 19:06 40.28360 27.03088 23084 ft 394 kts 274°
2026-05-06 19:07 40.28341 26.99522 22513 ft 388 kts 274°
2026-05-06 19:07 40.28323 26.96017 21975 ft 383 kts 274°
2026-05-06 19:07 40.28304 26.92590 21444 ft 379 kts 274°
2026-05-06 19:07 40.28285 26.89158 20924 ft 374 kts 274°
2026-05-06 19:08 40.28269 26.85770 20369 ft 370 kts 274°
2026-05-06 19:08 40.28253 26.82419 19821 ft 367 kts 274°
2026-05-06 19:08 40.28238 26.79090 19258 ft 364 kts 273°
2026-05-06 19:08 40.28221 26.75790 18695 ft 361 kts 273°
2026-05-06 19:09 40.28205 26.72502 18069 ft 360 kts 273°
2026-05-06 19:09 40.28187 26.69247 17461 ft 356 kts 273°
2026-05-06 19:09 40.28166 26.66015 16867 ft 354 kts 273°
2026-05-06 19:09 40.28146 26.62803 16265 ft 352 kts 273°
2026-05-06 19:10 40.28125 26.59606 15664 ft 350 kts 273°
2026-05-06 19:10 40.28103 26.56425 15053 ft 349 kts 273°
2026-05-06 19:10 40.28081 26.53262 14456 ft 347 kts 272°
2026-05-06 19:10 40.28056 26.50105 13848 ft 346 kts 272°
2026-05-06 19:11 40.28029 26.46958 13198 ft 344 kts 272°
2026-05-06 19:11 40.27989 26.43836 12600 ft 342 kts 269°
2026-05-06 19:11 40.27564 26.40768 11990 ft 345 kts 256°
2026-05-06 19:11 40.26577 26.37901 11380 ft 348 kts 242°
2026-05-06 19:12 40.25079 26.35391 10740 ft 352 kts 227°
2026-05-06 19:12 40.23257 26.33310 10493 ft 342 kts 223°
2026-05-06 19:12 40.21489 26.31326 10373 ft 328 kts 223°
2026-05-06 19:12 40.19799 26.29416 10254 ft 315 kts 224°
2026-05-06 19:13 40.18164 26.27556 10037 ft 308 kts 224°
2026-05-06 19:13 40.16582 26.25753 9919 ft 301 kts 224°
2026-05-06 19:13 40.15004 26.23949 9441 ft 299 kts 224°
2026-05-06 19:13 40.13444 26.22168 8926 ft 295 kts 223°
2026-05-06 19:14 40.11920 26.20436 8409 ft 293 kts 223°
2026-05-06 19:14 40.10392 26.18706 7923 ft 290 kts 222°
2026-05-06 19:14 40.08873 26.16988 7416 ft 287 kts 222°
2026-05-06 19:14 40.07324 26.15242 6920 ft 284 kts 220°
2026-05-06 19:15 40.05672 26.14035 6450 ft 281 kts 193°
2026-05-06 19:15 40.03759 26.14087 5940 ft 275 kts 162°
2026-05-06 19:15 40.02156 26.15373 5223 ft 273 kts 132°
2026-05-06 19:15 40.00947 26.17258 4713 ft 266 kts 130°
2026-05-06 19:16 39.99789 26.19036 4518 ft 247 kts 131°
2026-05-06 19:16 39.98707 26.20656 4393 ft 227 kts 131°
2026-05-06 19:16 39.97792 26.22212 4289 ft 208 kts 113°
2026-05-06 19:16 39.97671 26.23949 4173 ft 192 kts 71°
2026-05-06 19:17 39.98429 26.25315 3809 ft 187 kts 37°
2026-05-06 19:17 39.99411 26.26386 3483 ft 180 kts 40°
2026-05-06 19:17 40.00329 26.27441 3236 ft 172 kts 40°
2026-05-06 19:17 40.01210 26.28444 2999 ft 164 kts 40°
2026-05-06 19:18 40.02055 26.29404 2785 ft 158 kts 40°
2026-05-06 19:18 40.02871 26.30329 2583 ft 155 kts 40°
2026-05-06 19:18 40.03684 26.31250 2380 ft 154 kts 40°
2026-05-06 19:18 40.04490 26.32165 2186 ft 151 kts 40°
2026-05-06 19:19 40.05276 26.33056 1983 ft 148 kts 40°
2026-05-06 19:19 40.06041 26.33923 1800 ft 140 kts 40°
2026-05-06 19:19 40.06768 26.34748 1608 ft 136 kts 40°
2026-05-06 19:19 40.07478 26.35555 1416 ft 134 kts 41°
2026-05-06 19:20 40.08182 26.36354 1254 ft 134 kts 41°
2026-05-06 19:20 40.08884 26.37151 1068 ft 134 kts 41°
2026-05-06 19:20 40.09587 26.37949 891 ft 134 kts 42°
2026-05-06 19:20 40.10293 26.38750 728 ft 134 kts 42°
2026-05-06 19:21 40.10996 26.39545 574 ft 134 kts 41°
2026-05-06 19:21 40.11690 26.40336 395 ft 134 kts 42°
2026-05-06 19:21 40.12387 26.41138 172 ft 133 kts 42°
2026-05-06 19:21 40.13076 26.41913 29 ft 121 kts 41°
2026-05-06 19:22 40.13547 26.42451 27 ft 49 kts 41°
2026-05-06 19:22 40.13663 26.42579 25 ft 13 kts 26°
2026-05-06 19:22 40.13731 26.42539 27 ft 10 kts 302°
2026-05-06 19:22 40.13780 26.42465 27 ft 10 kts 314°
2026-05-06 19:23 40.13783 26.42462 27 ft 0 kts 314°
2026-05-06 19:23 40.13784 26.42461 27 ft 0 kts 315°
2026-05-06 19:24 40.13792 26.42452 27 ft 5 kts 324°
2026-05-06 19:24 40.13840 26.42467 29 ft 12 kts 46°
2026-05-06 19:24 40.13870 26.42493 29 ft 4 kts 11°
2026-05-06 19:24 40.13899 26.42466 29 ft 1 kts 311°
2026-05-06 19:25 40.13906 26.42455 29 ft 0 kts 309°